^^
Station Historical Data
Daily Summary for November 24, 2017 Units:  Metric    English   Both
« Previous Day
Next Day »
Daily Weekly Monthly Yearly Custom
  High: Low: Average:
Temperature: 30.5 °C 15 °C 21.7 °C
Dew Point: 3.2 °C -13.3 °C -3.4 °C
Humidity: 35% 6% 21%
Wind Speed: 28.8km/h 0km/h 13.8km/h
Wind Gust: 48.3km/h - -
Wind- - SSW
Pressure: 1014.4 hPa 1009.7 hPa -
Precipitation: 0 mm    
Historical Graphs
 
 
Tabular Data for November 24, 2017
Time Temperature Dew Point Pressure Wind Wind Speed Wind Gust Humidity Rainfall Rate (Hourly) solar Conditions
00:00 19.9 °C -3.1 °C 1013.4 hPa SSW 13 km/h 19.3 km/h 21% 0 mm 0.0 W/m2
00:05 19.8 °C -3.2 °C 1013.4 hPa SSW 11.1 km/h 14.5 km/h 21% 0 mm 0.0 W/m2
00:15 19.6 °C -2.7 °C 1013.4 hPa SSW 11.1 km/h 16.1 km/h 22% 0 mm 0.0 W/m2
00:20 19.4 °C -2.9 °C 1013.4 hPa SSW 11.1 km/h 14.5 km/h 22% 0 mm 0.0 W/m2
00:25 19.3 °C -2.4 °C 1013.4 hPa SSW 13 km/h 16.1 km/h 23% 0 mm 0.0 W/m2
00:30 19.2 °C -2.4 °C 1013.4 hPa SSW 11.1 km/h 14.5 km/h 23% 0 mm 0.0 W/m2
00:35 19.1 °C -2.5 °C 1013.4 hPa SSW 13 km/h 16.1 km/h 23% 0 mm 0.0 W/m2
00:55 18.7 °C -1.2 °C 1013.1 hPa SSW 11.1 km/h 17.7 km/h 26% 0 mm 0.0 W/m2
01:00 18.6 °C -1.3 °C 1013.1 hPa SSW 11.1 km/h 14.5 km/h 26% 0 mm 0.0 W/m2
01:06 18.5 °C -1.4 °C 1013.1 hPa SSW 11.1 km/h 14.5 km/h 26% 0 mm 0.0 W/m2
01:21 18.2 °C -0.6 °C 1013.1 hPa SSW 13 km/h 16.1 km/h 28% 0 mm 0.0 W/m2
01:31 18.1 °C -0.7 °C 1013.1 hPa SSW 11.1 km/h 16.1 km/h 28% 0 mm 0.0 W/m2
01:41 17.9 °C -0.4 °C 1013.1 hPa SSW 16.3 km/h 16.3 km/h 29% 0 mm 0.0 W/m2
01:46 17.9 °C -0.4 °C 1013.1 hPa SSW 13 km/h 17.7 km/h 29% 0 mm 0.0 W/m2
02:01 17.7 °C -0.6 °C 1013.1 hPa SSW 9.7 km/h 14.5 km/h 29% 0 mm 0.0 W/m2
02:06 17.6 °C -0.7 °C 1013.1 hPa SSW 7.9 km/h 11.3 km/h 29% 0 mm 0.0 W/m2
02:11 17.5 °C -0.7 °C 1013.1 hPa SSW 9.7 km/h 11.3 km/h 29% 0 mm 0.0 W/m2
02:21 17.1 °C -0.2 °C 1012.8 hPa SSW 9.7 km/h 11.3 km/h 31% 0 mm 0.0 W/m2
02:26 16.9 °C -0.3 °C 1012.8 hPa SSW 7.9 km/h 11.3 km/h 31% 0 mm 0.0 W/m2
02:31 16.8 °C -0.4 °C 1012.8 hPa SSW 9.7 km/h 11.3 km/h 31% 0 mm 0.0 W/m2
02:36 16.7 °C -0.5 °C 1012.8 hPa SW 9.7 km/h 12.9 km/h 31% 0 mm 0.0 W/m2
02:42 16.7 °C -0.1 °C 1012.8 hPa SW 11.1 km/h 14.5 km/h 32% 0 mm 0.0 W/m2
02:47 16.7 °C -0.1 °C 1012.8 hPa SW 16.3 km/h 16.3 km/h 32% 0 mm 0.0 W/m2
02:57 16.6 °C -0.2 °C 1012.4 hPa SW 9.7 km/h 11.3 km/h 32% 0 mm 0.0 W/m2
03:08 17 °C -1.2 °C 1012.4 hPa SW 7.9 km/h 11.3 km/h 29% 0 mm 0.0 W/m2
03:18 16.9 °C -0.3 °C 1012.4 hPa SW 9.7 km/h 14.5 km/h 31% 0 mm 0.0 W/m2
03:28 16.8 °C -0.4 °C 1012.8 hPa SW 7.9 km/h 9.7 km/h 31% 0 mm 0.0 W/m2
03:33 16.6 °C -0.2 °C 1012.8 hPa SW 11.1 km/h 11.3 km/h 32% 0 mm 0.0 W/m2
03:48 16.4 °C 0.1 °C 1012.8 hPa SW 11.1 km/h 17.7 km/h 33% 0 mm 0.0 W/m2
03:53 16.4 °C 0.1 °C 1012.8 hPa SW 13 km/h 19.3 km/h 33% 0 mm 0.0 W/m2
03:58 16.4 °C 0.1 °C 1012.8 hPa SW 17.7 km/h 17.7 km/h 33% 0 mm 0.0 W/m2
04:03 16.4 °C 0.1 °C 1012.8 hPa SW 13 km/h 17.7 km/h 33% 0 mm 0.0 W/m2
04:13 16.3 °C 0.4 °C 1012.8 hPa SW 9.7 km/h 17.7 km/h 34% 0 mm 0.0 W/m2
04:23 16.1 °C 0.2 °C 1013.1 hPa SW 11.1 km/h 16.1 km/h 34% 0 mm 0.0 W/m2
04:33 15.9 °C 0.5 °C 1013.1 hPa SW 11.1 km/h 12.9 km/h 35% 0 mm 0.0 W/m2
04:38 15.8 °C 0.4 °C 1013.1 hPa SW 9.7 km/h 14.5 km/h 35% 0 mm 0.0 W/m2
04:43 15.7 °C 0.3 °C 1013.4 hPa SW 9.7 km/h 14.5 km/h 35% 0 mm 0.0 W/m2
04:53 15.4 °C 0 °C 1013.4 hPa SW 7.9 km/h 11.3 km/h 35% 0 mm 0.0 W/m2
04:58 15.4 °C 0 °C 1013.4 hPa SW 11.1 km/h 11.3 km/h 35% 0 mm 0.0 W/m2
05:03 15.4 °C 0 °C 1013.4 hPa SW 11.1 km/h 12.9 km/h 35% 0 mm 0.0 W/m2
05:18 15.3 °C -0.1 °C 1013.4 hPa SW 9.7 km/h 11.3 km/h 35% 0 mm 0.0 W/m2
05:23 15.3 °C -0.1 °C 1013.4 hPa SW 11.1 km/h 12.9 km/h 35% 0 mm 0.0 W/m2
05:28 15.3 °C -0.1 °C 1013.8 hPa SW 6.4 km/h 12.9 km/h 35% 0 mm 0.0 W/m2
05:45 15.1 °C -0.3 °C 1013.8 hPa SW 7.9 km/h 11.3 km/h 35% 0 mm 0.0 W/m2
05:50 15 °C -0.3 °C 1014.1 hPa SW 7.9 km/h 11.3 km/h 35% 0 mm 5.0 W/m2
05:59 15 °C -0.3 °C 1014.1 hPa SW 7.9 km/h 11.3 km/h 35% 0 mm 12.0 W/m2
06:04 15.1 °C -0.7 °C 1014.1 hPa SW 9.7 km/h 14.5 km/h 34% 0 mm 16.0 W/m2
06:15 15.3 °C -0.9 °C 1014.4 hPa SW 11.1 km/h 14.5 km/h 33% 0 mm 28.0 W/m2
06:24 15.4 °C -1.7 °C 1014.4 hPa SW 16.3 km/h 16.3 km/h 31% 0 mm 56.0 W/m2
06:35 15.7 °C -1.8 °C 1014.4 hPa SW 14.3 km/h 20.9 km/h 30% 0 mm 90.0 W/m2
06:47 15.8 °C -2.2 °C 1014.4 hPa SW 19.5 km/h 22.5 km/h 29% 0 mm 128.0 W/m2
06:57 16.1 °C -2.9 °C 1014.4 hPa SW 17.7 km/h 20.9 km/h 27% 0 mm 178.0 W/m2
07:10 16.3 °C -2.7 °C 1014.4 hPa SW 16.3 km/h 22.5 km/h 27% 0 mm 225.0 W/m2
07:25 16.7 °C -2.9 °C 1014.4 hPa SW 14.3 km/h 19.3 km/h 26% 0 mm 267.0 W/m2
07:39 17.4 °C -3.4 °C 1014.4 hPa SW 16.3 km/h 19.3 km/h 24% 0 mm 341.0 W/m2
07:48 18.1 °C -2.8 °C 1014.4 hPa SW 17.7 km/h 19.3 km/h 24% 0 mm 353.0 W/m2
07:57 18.4 °C -3.1 °C 1014.4 hPa SW 11.1 km/h 17.7 km/h 23% 0 mm 403.0 W/m2
08:05 18.8 °C -3.4 °C 1014.4 hPa SW 16.3 km/h 19.3 km/h 22% 0 mm 387.0 W/m2
08:20 19.8 °C -3.2 °C 1014.4 hPa SW 14.3 km/h 19.3 km/h 21% 0 mm 485.0 W/m2
08:25 20.1 °C -3.6 °C 1014.4 hPa SW 14.3 km/h 19.3 km/h 20% 0 mm 506.0 W/m2
08:33 20.3 °C -3.4 °C 1014.4 hPa SW 14.3 km/h 19.3 km/h 20% 0 mm 520.0 W/m2
08:44 20.9 °C -3.6 °C 1014.4 hPa SW 11.1 km/h 17.7 km/h 19% 0 mm 557.0 W/m2
08:54 21.3 °C -4 °C 1014.4 hPa SW 11.1 km/h 11.3 km/h 18% 0 mm 564.0 W/m2
09:05 21.7 °C -4.4 °C 1014.4 hPa SW 4.7 km/h 9.7 km/h 17% 0 mm 613.0 W/m2
09:13 22.2 °C -4.8 °C 1014.4 hPa SW 7.9 km/h 8 km/h 16% 0 mm 638.0 W/m2
09:21 22.7 °C -5.3 °C 1014.4 hPa Calm     15% 0 mm 663.0 W/m2
09:26 22.9 °C -5.1 °C 1014.4 hPa Calm     15% 0 mm 673.0 W/m2
09:41 23.3 °C -5.7 °C 1014.1 hPa Calm   9.7 km/h 14% 0 mm 729.0 W/m2
09:46 23.6 °C -5.5 °C 1014.1 hPa SW 6.4 km/h 12.9 km/h 14% 0 mm 661.0 W/m2
09:52 23.7 °C -5.4 °C 1014.1 hPa SW 7.9 km/h 12.9 km/h 14% 0 mm 657.0 W/m2
09:59 23.7 °C -5.4 °C 1014.1 hPa SW 13 km/h 17.7 km/h 14% 0 mm 628.0 W/m2
10:04 23.7 °C -5.4 °C 1014.1 hPa SW 13 km/h 14.5 km/h 14% 0 mm 803.0 W/m2
10:12 24.7 °C -5.6 °C 1013.8 hPa SW 13 km/h 17.7 km/h 13% 0 mm 895.0 W/m2
10:22 24.7 °C -5.6 °C 1013.8 hPa SSW 14.3 km/h 17.7 km/h 13% 0 mm 928.0 W/m2
10:33 24.9 °C -5.4 °C 1013.8 hPa SW 16.3 km/h 24.1 km/h 13% 0 mm 905.0 W/m2
10:38 25.3 °C -6.2 °C 1013.4 hPa SW 17.7 km/h 22.5 km/h 12% 0 mm 884.0 W/m2
10:47 25.5 °C -6 °C 1013.4 hPa SW 16.3 km/h 25.7 km/h 12% 0 mm 679.0 W/m2
10:52 25.5 °C -6 °C 1013.4 hPa SW 16.3 km/h 22.5 km/h 12% 0 mm 798.0 W/m2
11:03 25.7 °C -5.8 °C 1013.4 hPa SW 19.5 km/h 19.5 km/h 12% 0 mm 905.0 W/m2
11:08 26 °C -5.6 °C 1013.4 hPa SSW 17.7 km/h 24.1 km/h 12% 0 mm 916.0 W/m2
11:16 26.3 °C -6.5 °C 1013.4 hPa SSW 14.3 km/h 22.5 km/h 11% 0 mm 921.0 W/m2
11:43 26.8 °C -6.1 °C 1013.1 hPa SSW 16.3 km/h 27.4 km/h 11% 0 mm 953.0 W/m2
12:00 27.6 °C -8.1 °C 1013.1 hPa South 14.3 km/h 25.7 km/h 9% 0 mm 969.0 W/m2
13:05 29.5 °C -8.2 °C 1012.4 hPa SSW 24.1 km/h 29 km/h 8% 0 mm 1016.0 W/m2
13:18 29.8 °C -9.7 °C 1012.1 hPa South 24.1 km/h 25.7 km/h 7% 0 mm 970.0 W/m2
13:44 30.3 °C -9.3 °C 1011.7 hPa South 22.7 km/h 33.8 km/h 7% 0 mm 949.0 W/m2
14:28 30.3 °C -6.1 °C 1011.4 hPa South 25.9 km/h 29 km/h 9% 0 mm 877.0 W/m2
14:40 30.4 °C -6 °C 1011.4 hPa SSW 22.7 km/h 27.4 km/h 9% 0 mm 849.0 W/m2
14:46 30.3 °C -6.1 °C 1011.1 hPa SSE 16.3 km/h 27.4 km/h 9% 0 mm 838.0 W/m2
14:52 30.2 °C -6.2 °C 1011.1 hPa SSW 22.7 km/h 25.7 km/h 9% 0 mm 826.0 W/m2
15:01 30.3 °C -6.1 °C 1011.1 hPa SSW 19.5 km/h 25.7 km/h 9% 0 mm 803.0 W/m2
15:39 30.1 °C -6.3 °C 1010.7 hPa South 16.3 km/h 20.9 km/h 9% 0 mm 714.0 W/m2
15:53 30.2 °C -7.7 °C 1010.4 hPa SSW 19.5 km/h 22.5 km/h 8% 0 mm 671.0 W/m2
16:02 30.3 °C -7.6 °C 1010.4 hPa SSW 19.5 km/h 32.2 km/h 8% 0 mm 645.0 W/m2
16:12 30.5 °C -9.2 °C 1010.4 hPa SSW 20.9 km/h 30.6 km/h 7% 0 mm 613.0 W/m2
16:20 30.4 °C -9.3 °C 1010 hPa SSE 24.1 km/h 24.1 km/h 7% 0 mm 582.0 W/m2
16:31 30.5 °C -9.2 °C 1010 hPa South 16.3 km/h 25.7 km/h 7% 0 mm 548.0 W/m2
16:37 30.3 °C -9.3 °C 1010 hPa South 17.7 km/h 27.4 km/h 7% 0 mm 533.0 W/m2
16:44 30.1 °C -9.5 °C 1010 hPa SSW 17.7 km/h 30.6 km/h 7% 0 mm 499.0 W/m2
16:54 30.1 °C -9.5 °C 1010 hPa SSE 17.7 km/h 27.4 km/h 7% 0 mm 468.0 W/m2
17:00 30.1 °C -9.5 °C 1010 hPa South 27.4 km/h 33.8 km/h 7% 0 mm 450.0 W/m2
17:10 29.9 °C -9.6 °C 1010 hPa SSE 19.5 km/h 48.3 km/h 7% 0 mm 417.0 W/m2
17:20 29.9 °C -11.6 °C 1009.7 hPa SSE 22.7 km/h 24.1 km/h 6% 0 mm 383.0 W/m2
17:26 29.8 °C -11.7 °C 1009.7 hPa SSE 19.5 km/h 25.7 km/h 6% 0 mm 366.0 W/m2
17:33 29.8 °C -11.7 °C 1009.7 hPa South 16.3 km/h 25.7 km/h 6% 0 mm 346.0 W/m2
18:18 29.3 °C -12 °C 1009.7 hPa SE 28.8 km/h 32.2 km/h 6% 0 mm 204.0 W/m2
18:36 28.8 °C -12.4 °C 1010 hPa SSE 27.4 km/h 30.6 km/h 6% 0 mm 116.0 W/m2
19:04 28.3 °C -12.7 °C 1010.4 hPa South 22.7 km/h 30.6 km/h 6% 0 mm 16.0 W/m2
19:17 27.9 °C -13 °C 1010.4 hPa South 19.5 km/h 29 km/h 6% 0 mm 11.0 W/m2
19:33 27.5 °C -13.3 °C 1010.7 hPa SSE 14.3 km/h 27.4 km/h 6% 0 mm 0.0 W/m2
20:10 26.6 °C -12.1 °C 1010.7 hPa South 11.1 km/h 17.7 km/h 7% 0 mm 0.0 W/m2
20:21 26.1 °C -9.3 °C 1011.1 hPa South 14.3 km/h 17.7 km/h 9% 0 mm 0.0 W/m2
20:46 25.4 °C -8.4 °C 1011.1 hPa SSW 13 km/h 16.1 km/h 10% 0 mm 0.0 W/m2
21:11 24.2 °C 1.1 °C 1011.4 hPa SSE 11.1 km/h 24.1 km/h 22% 0 mm 0.0 W/m2
21:45 23.2 °C 3.2 °C 1011.7 hPa South 14.3 km/h 25.7 km/h 27% 0 mm 0.0 W/m2
22:05 22.6 °C 2.7 °C 1011.7 hPa South 16.3 km/h 20.9 km/h 27% 0 mm 0.0 W/m2
22:20 21.9 °C 2.1 °C 1012.1 hPa South 14.3 km/h 20.9 km/h 27% 0 mm 0.0 W/m2
22:27 21.8 °C 2 °C 1012.1 hPa South 17.7 km/h 19.3 km/h 27% 0 mm 0.0 W/m2
22:36 21.5 °C 1.7 °C 1012.1 hPa South 16.3 km/h 19.3 km/h 27% 0 mm 0.0 W/m2
22:41 21.4 °C 1.6 °C 1012.1 hPa SSW 11.1 km/h 17.7 km/h 27% 0 mm 0.0 W/m2
22:51 21.2 °C 0.9 °C 1012.1 hPa SSW 14.3 km/h 16.1 km/h 26% 0 mm 0.0 W/m2
22:57 21.1 °C 0.8 °C 1012.1 hPa SSW 9.7 km/h 16.1 km/h 26% 0 mm 0.0 W/m2
23:07 20.8 °C 0.6 °C 1012.1 hPa SSW 14.3 km/h 19.3 km/h 26% 0 mm 0.0 W/m2
23:12 20.7 °C 0.5 °C 1012.1 hPa SSW 11.1 km/h 16.1 km/h 26% 0 mm 0.0 W/m2
23:17 20.6 °C 0.4 °C 1012.1 hPa SSW 13 km/h 16.1 km/h 26% 0 mm 0.0 W/m2
23:22 20.5 °C 0.9 °C 1012.1 hPa SSW 9.7 km/h 16.1 km/h 27% 0 mm 0.0 W/m2
23:32 20.4 °C 0.8 °C 1012.1 hPa SSW 14.3 km/h 16.1 km/h 27% 0 mm 0.0 W/m2
23:37 20.3 °C 1.2 °C 1012.1 hPa SSW 13 km/h 17.7 km/h 28% 0 mm 0.0 W/m2
23:42 20.3 °C 1.2 °C 1012.1 hPa SSW 13 km/h 17.7 km/h 28% 0 mm 0.0 W/m2
23:47 20.2 °C 1.6 °C 1012.1 hPa SSW 13 km/h 16.1 km/h 29% 0 mm 0.0 W/m2
23:52 20 °C 1.4 °C 1012.1 hPa SSW 9.7 km/h 12.9 km/h 29% 0 mm 0.0 W/m2
23:57 19.8 °C 1.7 °C 1012.1 hPa SSW 9.7 km/h 12.9 km/h 30% 0 mm 0.0 W/m2
Canyon Roadhouse, Fishriver Canyon, Namibia
Compliments of Weather Underground - 2.25 mb